Time;durP1;ratioP1;P1;durP2;ratioP2;P2;SDS_P1;SDS_P2;PMS_P1;PMS_P2;Temp;Humidity;BMP_temperature;BMP_pressure;BME280_temperature;BME280_humidity;BME280_pressure;Samples;Min_cycle;Max_cycle;Signal;HPM_P1;HPM_P2
2023/04/17 00:00:59;;;;;;;4.13;2.60;;;;;;;;;;6250069;22;20195;-73
2023/04/17 00:04:03;;;;;;;4.10;2.50;;;;;;;;;;6255612;23;20152;-74
2023/04/17 00:07:08;;;;;;;2.53;2.30;;;;;;;;;;6255055;23;20151;-73
2023/04/17 00:10:12;;;;;;;2.70;2.47;;;;;;;;;;6255278;23;20148;-74
2023/04/17 00:13:16;;;;;;;2.60;2.17;;;;;;;;;;6237686;23;20152;-73
2023/04/17 00:16:20;;;;;;;2.87;2.63;;;;;;;;;;6256254;23;20161;-73
2023/04/17 00:19:24;;;;;;;2.63;2.43;;;;;;;;;;6256273;23;20152;-73
2023/04/17 00:22:28;;;;;;;2.83;2.63;;;;;;;;;;6246647;22;20191;-73
2023/04/17 00:25:32;;;;;;;4.17;2.60;;;;;;;;;;6255150;23;20152;-73
2023/04/17 00:28:36;;;;;;;2.87;2.67;;;;;;;;;;6256072;23;20159;-73
2023/04/17 00:31:40;;;;;;;3.80;3.03;;;;;;;;;;6234645;23;20191;-73
2023/04/17 00:34:44;;;;;;;3.33;3.00;;;;;;;;;;6239352;23;20628;-73
2023/04/17 00:37:49;;;;;;;3.33;2.93;;;;;;;;;;6257016;23;20151;-73
2023/04/17 00:40:53;;;;;;;3.50;3.20;;;;;;;;;;6254967;22;20191;-73
2023/04/17 00:43:57;;;;;;;3.40;2.93;;;;;;;;;;6256579;23;20151;-73
2023/04/17 00:47:01;;;;;;;4.43;3.00;;;;;;;;;;6257891;23;20151;-73
2023/04/17 00:50:06;;;;;;;4.07;3.30;;;;;;;;;;6256518;23;20151;-73
2023/04/17 00:53:11;;;;;;;4.57;3.77;;;;;;;;;;6256477;23;20155;-73
2023/04/17 00:56:15;;;;;;;4.30;3.60;;;;;;;;;;6256447;23;20156;-73
2023/04/17 00:59:20;;;;;;;4.63;3.87;;;;;;;;;;6255390;23;20151;-74
2023/04/17 01:02:25;;;;;;;4.80;3.90;;;;;;;;;;6213706;23;20187;-73
2023/04/17 01:05:29;;;;;;;4.57;3.90;;;;;;;;;;6256446;23;20148;-74
2023/04/17 01:08:41;;;;;;;4.53;4.13;;;;;;;;;;6239540;23;20151;-73
2023/04/17 01:11:45;;;;;;;5.83;4.10;;;;;;;;;;6233790;23;20532;-73
2023/04/17 01:14:53;;;;;;;4.80;4.10;;;;;;;;;;6239045;23;20183;-74
2023/04/17 01:17:57;;;;;;;5.13;4.63;;;;;;;;;;6256569;23;20159;-73
2023/04/17 01:21:02;;;;;;;4.83;4.20;;;;;;;;;;6254393;22;20501;-73
2023/04/17 01:24:06;;;;;;;5.17;4.47;;;;;;;;;;6256525;23;20148;-73
2023/04/17 01:27:12;;;;;;;5.50;4.43;;;;;;;;;;6256112;23;20156;-73
2023/04/17 01:30:18;;;;;;;5.00;4.00;;;;;;;;;;6256550;23;20152;-73
2023/04/17 01:33:31;;;;;;;6.13;4.70;;;;;;;;;;6239317;23;20151;-73
2023/04/17 01:36:35;;;;;;;5.40;4.90;;;;;;;;;;6256150;23;20156;-73
2023/04/17 01:39:39;;;;;;;4.30;3.90;;;;;;;;;;6256587;23;20156;-73
2023/04/17 01:42:43;;;;;;;4.73;4.33;;;;;;;;;;6212129;23;20187;-73
2023/04/17 01:45:47;;;;;;;5.07;3.63;;;;;;;;;;6256333;23;20152;-75
2023/04/17 01:48:52;;;;;;;5.60;3.77;;;;;;;;;;6256315;23;20155;-73
2023/04/17 01:51:56;;;;;;;4.10;3.70;;;;;;;;;;6246106;23;20191;-73
2023/04/17 01:55:02;;;;;;;5.07;4.50;;;;;;;;;;6228290;23;20195;-73
2023/04/17 01:58:06;;;;;;;4.73;4.27;;;;;;;;;;6238419;23;20152;-73
2023/04/17 02:01:10;;;;;;;5.03;4.53;;;;;;;;;;6248996;22;20195;-73
2023/04/17 02:04:14;;;;;;;5.10;4.40;;;;;;;;;;6255849;23;20152;-73
2023/04/17 02:07:18;;;;;;;4.63;4.07;;;;;;;;;;6238385;23;20156;-73
2023/04/17 02:10:22;;;;;;;4.07;3.67;;;;;;;;;;6274394;22;20151;-73
2023/04/17 02:13:26;;;;;;;6.10;4.00;;;;;;;;;;6238894;23;20152;-73
2023/04/17 02:16:31;;;;;;;5.47;4.10;;;;;;;;;;6238551;23;20156;-73
2023/04/17 02:19:35;;;;;;;4.90;4.40;;;;;;;;;;6255997;23;20155;-73
2023/04/17 02:22:39;;;;;;;4.43;3.87;;;;;;;;;;6211960;23;20195;-73
2023/04/17 02:25:44;;;;;;;5.33;4.70;;;;;;;;;;6255921;23;20144;-73
2023/04/17 02:28:48;;;;;;;4.60;4.17;;;;;;;;;;6256255;23;20160;-73
2023/04/17 02:31:52;;;;;;;5.17;4.63;;;;;;;;;;6246880;22;20187;-73
2023/04/17 02:34:56;;;;;;;5.93;4.50;;;;;;;;;;6246453;23;20242;-73
2023/04/17 02:38:00;;;;;;;5.57;4.00;;;;;;;;;;6247149;23;20203;-74
2023/04/17 02:41:05;;;;;;;4.80;4.10;;;;;;;;;;6253087;22;20648;-74
2023/04/17 02:44:09;;;;;;;4.43;4.03;;;;;;;;;;6245615;23;20632;-74
2023/04/17 02:47:14;;;;;;;5.77;4.10;;;;;;;;;;6255662;23;20156;-74
2023/04/17 02:50:18;;;;;;;5.07;4.40;;;;;;;;;;6255045;23;20159;-75
2023/04/17 02:53:38;;;;;;;5.37;4.30;;;;;;;;;;6255444;23;20156;-74
2023/04/17 02:56:43;;;;;;;5.30;4.50;;;;;;;;;;6255348;23;20156;-75
2023/04/17 02:59:47;;;;;;;5.47;4.63;;;;;;;;;;6254511;23;20474;-74
2023/04/17 03:02:51;;;;;;;6.00;4.43;;;;;;;;;;6244830;23;20191;-75
2023/04/17 03:05:56;;;;;;;5.67;5.07;;;;;;;;;;6255051;23;20147;-73
2023/04/17 03:09:00;;;;;;;5.93;4.60;;;;;;;;;;6245159;23;20171;-74
2023/04/17 03:12:05;;;;;;;5.73;4.77;;;;;;;;;;6248498;23;20187;-73
2023/04/17 03:15:09;;;;;;;7.73;4.37;;;;;;;;;;6255516;23;20516;-73
2023/04/17 03:18:13;;;;;;;5.80;5.20;;;;;;;;;;6245110;23;20168;-73
2023/04/17 03:21:18;;;;;;;6.83;3.90;;;;;;;;;;6244903;22;20187;-73
2023/04/17 03:24:22;;;;;;;5.90;4.87;;;;;;;;;;6227547;23;20524;-73
2023/04/17 03:27:27;;;;;;;5.20;4.67;;;;;;;;;;6255092;23;20152;-73
2023/04/17 03:30:32;;;;;;;8.17;5.80;;;;;;;;;;6255415;22;20585;-73
2023/04/17 03:33:40;;;;;;;10.23;5.83;;;;;;;;;;6255207;23;20155;-73
2023/04/17 03:36:45;;;;;;;7.67;5.50;;;;;;;;;;6245216;23;20168;-73
2023/04/17 03:39:49;;;;;;;5.90;5.30;;;;;;;;;;6244700;23;20172;-73
2023/04/17 03:42:54;;;;;;;7.80;5.40;;;;;;;;;;6227575;23;20192;-73
2023/04/17 03:45:58;;;;;;;11.90;6.60;;;;;;;;;;6256272;23;20147;-73
2023/04/17 03:49:02;;;;;;;11.07;7.27;;;;;;;;;;6255154;23;20155;-73
2023/04/17 03:52:07;;;;;;;10.77;7.93;;;;;;;;;;6248026;22;20187;-73
2023/04/17 03:55:11;;;;;;;9.97;7.63;;;;;;;;;;6254987;23;20180;-73
2023/04/17 03:58:15;;;;;;;16.60;8.97;;;;;;;;;;6237543;23;20152;-74
2023/04/17 04:01:21;;;;;;;21.50;9.87;;;;;;;;;;6246025;22;20207;-74
2023/04/17 04:04:46;;;;;;;21.27;9.67;;;;;;;;;;6256884;23;20148;-72
2023/04/17 04:07:52;;;;;;;26.40;9.57;;;;;;;;;;6257400;23;20151;-73
2023/04/17 04:11:03;;;;;;;12.33;8.27;;;;;;;;;;6254971;22;20191;-73
2023/04/17 04:14:14;;;;;;;15.60;8.53;;;;;;;;;;6240903;23;20152;-73
2023/04/17 04:17:18;;;;;;;31.90;9.03;;;;;;;;;;6248009;23;20482;-73
2023/04/17 04:20:23;;;;;;;19.90;8.20;;;;;;;;;;6246664;23;20168;-73
2023/04/17 04:23:36;;;;;;;14.50;9.47;;;;;;;;;;6257221;23;20151;-73
2023/04/17 04:26:41;;;;;;;25.07;8.93;;;;;;;;;;6264405;22;20202;-73
2023/04/17 04:29:47;;;;;;;26.70;8.27;;;;;;;;;;6252894;22;20159;-71
2023/04/17 04:32:52;;;;;;;27.97;8.83;;;;;;;;;;6242394;22;20191;-72
2023/04/17 04:35:59;;;;;;;12.33;8.37;;;;;;;;;;6269782;22;20182;-72
2023/04/17 04:39:04;;;;;;;13.17;8.30;;;;;;;;;;6252292;22;20469;-72
2023/04/17 04:42:12;;;;;;;11.57;8.37;;;;;;;;;;6245251;22;20654;-73
2023/04/17 04:45:34;;;;;;;14.13;9.37;;;;;;;;;;6288367;22;20147;-73
2023/04/17 04:48:40;;;;;;;15.27;10.57;;;;;;;;;;6252455;22;20155;-73
2023/04/17 04:51:44;;;;;;;14.63;9.73;;;;;;;;;;6224807;22;20186;-73
2023/04/17 04:54:50;;;;;;;13.63;8.80;;;;;;;;;;6241890;22;20171;-73
2023/04/17 04:57:54;;;;;;;14.17;9.23;;;;;;;;;;6241905;22;20170;-73
2023/04/17 05:01:00;;;;;;;15.13;9.53;;;;;;;;;;6259426;22;20190;-73
2023/04/17 05:04:10;;;;;;;14.60;9.57;;;;;;;;;;6269678;22;20151;-73
2023/04/17 05:07:15;;;;;;;14.97;8.90;;;;;;;;;;6242030;22;20476;-73
2023/04/17 05:10:22;;;;;;;14.63;10.07;;;;;;;;;;6259108;22;20171;-73
2023/04/17 05:13:30;;;;;;;15.90;10.03;;;;;;;;;;6252039;22;20155;-73
2023/04/17 05:16:35;;;;;;;13.67;9.53;;;;;;;;;;6269260;22;20183;-73
2023/04/17 05:19:40;;;;;;;12.80;9.33;;;;;;;;;;6269646;22;20155;-73
2023/04/17 05:22:46;;;;;;;15.93;10.07;;;;;;;;;;6260037;22;20190;-73
2023/04/17 05:25:51;;;;;;;15.23;10.30;;;;;;;;;;6266922;22;20174;-73
2023/04/17 05:28:56;;;;;;;13.87;9.40;;;;;;;;;;6269635;22;20155;-73
2023/04/17 05:32:04;;;;;;;10.97;7.83;;;;;;;;;;6263154;22;20190;-72
2023/04/17 05:35:28;;;;;;;11.53;8.93;;;;;;;;;;6277752;22;20210;-73
2023/04/17 05:38:32;;;;;;;11.97;8.90;;;;;;;;;;6269378;22;20154;-73
2023/04/17 05:41:36;;;;;;;11.27;8.10;;;;;;;;;;6247455;22;20690;-73
2023/04/17 05:44:41;;;;;;;10.73;8.30;;;;;;;;;;6251826;22;20155;-73
2023/04/17 05:47:45;;;;;;;12.83;8.57;;;;;;;;;;6269633;22;20147;-73
2023/04/17 05:50:49;;;;;;;10.20;8.30;;;;;;;;;;6286183;22;20154;-72
2023/04/17 05:53:54;;;;;;;12.90;8.33;;;;;;;;;;6268517;22;20155;-72
2023/04/17 05:56:58;;;;;;;9.93;7.90;;;;;;;;;;6269289;22;20182;-73
2023/04/17 06:00:09;;;;;;;9.67;7.47;;;;;;;;;;6251726;22;20155;-73
2023/04/17 06:03:19;;;;;;;11.13;7.57;;;;;;;;;;6287373;22;20151;-73
2023/04/17 06:06:27;;;;;;;12.43;8.37;;;;;;;;;;6259727;22;20171;-72
2023/04/17 06:09:32;;;;;;;9.47;7.20;;;;;;;;;;6270116;22;20580;-72
2023/04/17 06:12:37;;;;;;;10.33;7.43;;;;;;;;;;6243547;22;20195;-73
2023/04/17 06:15:45;;;;;;;8.77;7.40;;;;;;;;;;6252551;22;20481;-73
2023/04/17 06:18:50;;;;;;;11.73;7.33;;;;;;;;;;6270492;22;20151;-72
2023/04/17 06:21:54;;;;;;;9.60;7.10;;;;;;;;;;6263388;22;20191;-72
2023/04/17 06:24:58;;;;;;;8.73;6.57;;;;;;;;;;6259759;22;20619;-72
2023/04/17 06:28:02;;;;;;;8.87;7.63;;;;;;;;;;6269816;22;20147;-72
2023/04/17 06:31:06;;;;;;;9.40;8.03;;;;;;;;;;6266994;22;20190;-73
2023/04/17 06:34:11;;;;;;;9.80;7.47;;;;;;;;;;6269565;22;20155;-73
2023/04/17 06:37:19;;;;;;;10.40;7.60;;;;;;;;;;6287073;22;20183;-72
2023/04/17 06:40:23;;;;;;;9.00;7.57;;;;;;;;;;6251658;22;20155;-72
2023/04/17 06:43:28;;;;;;;9.50;7.80;;;;;;;;;;6252137;22;20155;-73
2023/04/17 06:46:33;;;;;;;9.40;7.33;;;;;;;;;;6259410;22;20163;-73
2023/04/17 06:49:41;;;;;;;9.00;7.37;;;;;;;;;;6251837;22;20155;-72
2023/04/17 06:52:45;;;;;;;8.87;7.30;;;;;;;;;;6242802;22;20643;-72
2023/04/17 06:55:50;;;;;;;9.40;7.40;;;;;;;;;;6269424;22;20178;-72
2023/04/17 06:58:56;;;;;;;8.93;7.23;;;;;;;;;;6287663;22;20155;-72
2023/04/17 07:02:01;;;;;;;9.03;6.87;;;;;;;;;;6281676;22;20186;-73
2023/04/17 07:05:06;;;;;;;8.27;7.07;;;;;;;;;;6288296;22;20503;-72
2023/04/17 07:08:10;;;;;;;8.80;6.67;;;;;;;;;;6276945;22;20167;-73
2023/04/17 07:11:15;;;;;;;10.00;7.50;;;;;;;;;;6258224;22;20190;-73
2023/04/17 07:14:18;;;;;;;9.57;7.73;;;;;;;;;;6268477;22;20155;-73
2023/04/17 07:17:23;;;;;;;8.33;7.50;;;;;;;;;;6287276;22;20175;-73
2023/04/17 07:20:26;;;;;;;8.73;7.77;;;;;;;;;;6268512;22;20155;-73
2023/04/17 07:23:31;;;;;;;8.37;7.47;;;;;;;;;;6286812;22;20155;-73
2023/04/17 07:26:36;;;;;;;9.30;8.27;;;;;;;;;;6279984;22;20175;-73
2023/04/17 07:29:40;;;;;;;8.47;7.27;;;;;;;;;;6287144;22;20158;-73
2023/04/17 07:32:44;;;;;;;8.00;7.20;;;;;;;;;;6276701;22;20186;-73
2023/04/17 07:35:48;;;;;;;8.67;7.77;;;;;;;;;;6276607;22;20504;-73
2023/04/17 07:38:53;;;;;;;7.87;6.60;;;;;;;;;;6257806;22;20622;-74
2023/04/17 07:41:57;;;;;;;7.97;6.67;;;;;;;;;;6276419;22;20190;-72
2023/04/17 07:45:00;;;;;;;7.40;6.57;;;;;;;;;;6287384;22;20587;-74
2023/04/17 07:48:05;;;;;;;8.33;7.37;;;;;;;;;;6268918;22;20143;-72
2023/04/17 07:51:09;;;;;;;7.47;6.70;;;;;;;;;;6265648;22;20488;-73
2023/04/17 07:54:13;;;;;;;7.07;6.37;;;;;;;;;;6258477;22;20167;-74
2023/04/17 07:57:18;;;;;;;7.37;5.87;;;;;;;;;;6286645;22;20493;-71
2023/04/17 08:00:22;;;;;;;7.10;6.40;;;;;;;;;;6250734;22;20155;-71
2023/04/17 08:03:26;;;;;;;7.07;6.33;;;;;;;;;;6268123;22;20155;-73
2023/04/17 08:06:31;;;;;;;7.43;6.67;;;;;;;;;;6286636;22;20151;-74
2023/04/17 08:09:36;;;;;;;7.63;6.77;;;;;;;;;;6286666;22;20151;-71
2023/04/17 08:12:40;;;;;;;6.93;6.23;;;;;;;;;;6259138;22;20638;-70
2023/04/17 08:15:44;;;;;;;6.90;6.20;;;;;;;;;;6268498;22;20151;-71
2023/04/17 08:18:48;;;;;;;8.67;6.03;;;;;;;;;;6268136;22;20159;-71
2023/04/17 08:22:00;;;;;;;6.20;5.13;;;;;;;;;;6245332;22;20187;-71
2023/04/17 08:25:08;;;;;;;6.23;5.33;;;;;;;;;;6287207;22;20151;-71
2023/04/17 08:28:12;;;;;;;5.57;5.00;;;;;;;;;;6268198;22;20143;-71
2023/04/17 08:31:16;;;;;;;5.87;5.30;;;;;;;;;;6265035;22;20190;-71
2023/04/17 08:34:20;;;;;;;6.73;5.83;;;;;;;;;;6268206;22;20158;-72
2023/04/17 08:37:26;;;;;;;6.27;5.30;;;;;;;;;;6257800;22;20195;-72
2023/04/17 08:40:30;;;;;;;6.80;5.57;;;;;;;;;;6276875;22;20171;-72
2023/04/17 08:43:35;;;;;;;6.63;5.63;;;;;;;;;;6287159;22;20155;-71
2023/04/17 08:46:39;;;;;;;6.10;5.50;;;;;;;;;;6286479;22;20151;-72
2023/04/17 08:49:44;;;;;;;9.63;6.07;;;;;;;;;;6286917;22;20151;-71
2023/04/17 08:52:50;;;;;;;6.00;5.40;;;;;;;;;;6259998;22;20191;-71
2023/04/17 08:55:56;;;;;;;5.63;4.90;;;;;;;;;;6278759;22;20615;-71
2023/04/17 08:59:00;;;;;;;6.27;5.63;;;;;;;;;;6270505;22;20599;-71
2023/04/17 09:02:06;;;;;;;5.67;5.17;;;;;;;;;;6263004;22;20191;-71
2023/04/17 09:05:18;;;;;;;5.27;4.77;;;;;;;;;;6270257;22;20155;-71
2023/04/17 09:08:22;;;;;;;5.23;4.73;;;;;;;;;;6288881;22;20446;-71
2023/04/17 09:11:27;;;;;;;5.63;5.00;;;;;;;;;;6248138;22;20237;-71
2023/04/17 09:14:31;;;;;;;6.20;5.60;;;;;;;;;;6288780;22;20155;-72
2023/04/17 09:17:36;;;;;;;6.07;5.47;;;;;;;;;;6269972;22;20178;-72
2023/04/17 09:20:49;;;;;;;6.07;5.43;;;;;;;;;;6269412;22;20465;-72
2023/04/17 09:23:57;;;;;;;6.30;5.33;;;;;;;;;;6269655;22;20466;-72
2023/04/17 09:27:25;;;;;;;6.10;5.20;;;;;;;;;;6280614;22;20170;-71
2023/04/17 09:30:35;;;;;;;6.13;5.53;;;;;;;;;;6288402;22;20155;-72
2023/04/17 09:34:00;;;;;;;6.10;5.33;;;;;;;;;;6259714;22;20170;-72
2023/04/17 09:37:04;;;;;;;5.77;4.97;;;;;;;;;;6269583;22;20179;-71
2023/04/17 09:40:10;;;;;;;5.50;5.00;;;;;;;;;;6288589;22;20155;-71
2023/04/17 09:43:14;;;;;;;8.60;5.00;;;;;;;;;;6288230;22;20155;-71
2023/04/17 09:46:37;;;;;;;5.33;4.83;;;;;;;;;;6287784;22;20159;-71
2023/04/17 09:49:48;;;;;;;5.07;4.57;;;;;;;;;;6288092;22;20462;-71
2023/04/17 09:52:53;;;;;;;5.67;4.47;;;;;;;;;;6259217;22;20186;-70
2023/04/17 09:56:00;;;;;;;5.30;4.80;;;;;;;;;;6259150;22;20473;-70
2023/04/17 09:59:05;;;;;;;5.77;5.17;;;;;;;;;;6269273;22;20155;-71
2023/04/17 10:02:11;;;;;;;5.97;5.07;;;;;;;;;;6277412;22;20646;-71
2023/04/17 10:05:16;;;;;;;5.30;4.80;;;;;;;;;;6287809;22;20604;-70
2023/04/17 10:08:21;;;;;;;7.03;5.63;;;;;;;;;;6277699;22;20178;-71
2023/04/17 10:11:40;;;;;;;5.70;5.00;;;;;;;;;;6259002;22;20182;-71
2023/04/17 10:14:47;;;;;;;5.53;5.03;;;;;;;;;;6277600;22;20499;-71
2023/04/17 10:17:52;;;;;;;5.47;4.87;;;;;;;;;;6287947;22;20183;-71
2023/04/17 10:21:16;;;;;;;5.20;4.70;;;;;;;;;;6258431;22;20190;-70
2023/04/17 10:24:23;;;;;;;4.87;4.37;;;;;;;;;;6268998;22;20159;-71
2023/04/17 10:27:27;;;;;;;5.10;4.30;;;;;;;;;;6282838;22;20210;-74
2023/04/17 10:30:52;;;;;;;5.03;4.53;;;;;;;;;;6288016;22;20448;-74
2023/04/17 10:33:56;;;;;;;4.50;4.10;;;;;;;;;;6238568;23;20152;-74
2023/04/17 10:37:01;;;;;;;4.87;4.37;;;;;;;;;;6238176;23;20186;-75
2023/04/17 10:40:08;;;;;;;5.00;4.50;;;;;;;;;;6221216;23;20155;-75
2023/04/17 10:43:21;;;;;;;7.77;4.60;;;;;;;;;;6227988;23;20171;-75
2023/04/17 10:46:28;;;;;;;6.60;5.23;;;;;;;;;;6221384;23;20597;-74
2023/04/17 10:49:58;;;;;;;4.70;4.20;;;;;;;;;;6256931;23;20600;-75
2023/04/17 10:53:03;;;;;;;5.93;4.17;;;;;;;;;;6238816;23;20155;-75
2023/04/17 10:56:09;;;;;;;4.33;3.93;;;;;;;;;;6238039;23;20466;-74
2023/04/17 10:59:16;;;;;;;4.87;4.37;;;;;;;;;;6256945;23;20588;-74
2023/04/17 11:02:32;;;;;;;7.23;3.87;;;;;;;;;;6213872;23;20195;-76
2023/04/17 11:05:44;;;;;;;4.43;3.83;;;;;;;;;;6237829;23;20152;-75
2023/04/17 11:08:49;;;;;;;4.27;3.87;;;;;;;;;;6245506;23;20612;-75
2023/04/17 11:11:53;;;;;;;5.00;4.43;;;;;;;;;;6231961;23;20655;-75
2023/04/17 11:15:05;;;;;;;6.50;4.63;;;;;;;;;;6246009;23;20167;-75
2023/04/17 11:18:09;;;;;;;4.90;4.40;;;;;;;;;;6238159;23;20180;-75
2023/04/17 11:21:14;;;;;;;6.93;4.53;;;;;;;;;;6234787;22;20187;-74
2023/04/17 11:24:31;;;;;;;4.83;4.33;;;;;;;;;;6255662;23;20152;-75
2023/04/17 11:27:35;;;;;;;5.00;4.50;;;;;;;;;;6244743;23;20171;-75
2023/04/17 11:30:43;;;;;;;7.77;4.80;;;;;;;;;;6237329;22;20151;-75
2023/04/17 11:33:47;;;;;;;6.07;5.37;;;;;;;;;;6228454;23;20168;-75
2023/04/17 11:36:52;;;;;;;5.93;5.33;;;;;;;;;;6245990;23;20167;-74
2023/04/17 11:40:06;;;;;;;6.87;5.67;;;;;;;;;;6238147;23;20152;-75
2023/04/17 11:43:11;;;;;;;8.53;5.30;;;;;;;;;;6237574;23;20155;-75
2023/04/17 11:46:18;;;;;;;4.90;4.40;;;;;;;;;;6256574;23;20589;-75
2023/04/17 11:49:30;;;;;;;4.53;4.00;;;;;;;;;;6227832;23;20167;-74
2023/04/17 11:52:34;;;;;;;4.97;4.10;;;;;;;;;;6247649;22;20187;-74
2023/04/17 11:55:38;;;;;;;3.97;3.63;;;;;;;;;;6256353;23;20156;-74
2023/04/17 11:58:50;;;;;;;4.27;3.87;;;;;;;;;;6255934;23;20179;-74
2023/04/17 12:01:54;;;;;;;4.57;4.13;;;;;;;;;;6232164;23;20191;-74
2023/04/17 12:05:12;;;;;;;4.43;4.00;;;;;;;;;;6220388;23;20156;-74
2023/04/17 12:08:16;;;;;;;5.87;4.50;;;;;;;;;;6245684;23;20163;-74
2023/04/17 12:11:34;;;;;;;4.60;4.20;;;;;;;;;;6252115;22;20655;-74
2023/04/17 12:14:39;;;;;;;4.77;4.20;;;;;;;;;;6237730;23;20156;-75
2023/04/17 12:17:43;;;;;;;6.03;4.40;;;;;;;;;;6246099;23;20191;-74
2023/04/17 12:20:47;;;;;;;6.00;4.57;;;;;;;;;;6245130;22;20167;-74
2023/04/17 12:23:51;;;;;;;6.47;5.17;;;;;;;;;;6256893;23;20469;-75
2023/04/17 12:26:57;;;;;;;12.67;5.67;;;;;;;;;;6256295;23;20175;-74
2023/04/17 12:30:02;;;;;;;5.93;4.07;;;;;;;;;;6259323;23;20579;-76
2023/04/17 12:33:06;;;;;;;9.50;4.27;;;;;;;;;;6239894;23;20155;-76
2023/04/17 12:36:10;;;;;;;5.37;3.17;;;;;;;;;;6257872;23;20156;-76
2023/04/17 12:39:15;;;;;;;6.50;3.90;;;;;;;;;;6256868;23;20183;-75
2023/04/17 12:42:19;;;;;;;8.23;4.40;;;;;;;;;;6231747;23;20524;-74
2023/04/17 12:45:23;;;;;;;7.60;4.80;;;;;;;;;;6239524;23;20155;-74
2023/04/17 12:48:27;;;;;;;5.83;4.17;;;;;;;;;;6239066;23;20152;-74
2023/04/17 12:51:36;;;;;;;8.10;4.93;;;;;;;;;;6234839;22;20519;-74
2023/04/17 12:54:40;;;;;;;6.00;4.57;;;;;;;;;;6205174;23;20577;-74
2023/04/17 12:57:45;;;;;;;5.60;4.03;;;;;;;;;;6239183;23;20183;-75
2023/04/17 13:00:49;;;;;;;4.77;4.30;;;;;;;;;;6256484;22;20155;-74
2023/04/17 13:03:53;;;;;;;7.63;5.10;;;;;;;;;;6257779;23;20159;-74
2023/04/17 13:06:57;;;;;;;7.50;4.87;;;;;;;;;;6256578;23;20147;-74
2023/04/17 13:10:02;;;;;;;4.70;4.20;;;;;;;;;;6257958;23;20151;-74
2023/04/17 13:13:07;;;;;;;4.80;4.40;;;;;;;;;;6238932;23;20156;-73
2023/04/17 13:16:11;;;;;;;5.70;5.10;;;;;;;;;;6239360;23;20502;-73
2023/04/17 13:19:15;;;;;;;8.07;6.03;;;;;;;;;;6257489;23;20183;-74
2023/04/17 13:22:20;;;;;;;15.40;11.93;;;;;;;;;;6249721;22;20195;-73
2023/04/17 13:25:24;;;;;;;7.20;5.37;;;;;;;;;;6238877;23;20215;-74
2023/04/17 13:28:28;;;;;;;7.77;5.30;;;;;;;;;;6237499;23;20176;-73
2023/04/17 13:31:32;;;;;;;10.43;7.37;;;;;;;;;;6245986;22;20187;-73
2023/04/17 13:34:36;;;;;;;23.40;11.87;;;;;;;;;;6238312;23;20151;-73
2023/04/17 13:37:40;;;;;;;17.33;11.43;;;;;;;;;;6239052;23;20190;-73
2023/04/17 13:40:44;;;;;;;10.00;8.47;;;;;;;;;;6237928;22;20159;-73
2023/04/17 13:43:49;;;;;;;7.20;6.50;;;;;;;;;;6256989;23;20588;-73
2023/04/17 13:46:53;;;;;;;5.00;4.53;;;;;;;;;;6257567;23;20576;-73
2023/04/17 13:49:58;;;;;;;3.53;3.23;;;;;;;;;;6256012;23;20151;-74
2023/04/17 13:53:02;;;;;;;4.87;4.40;;;;;;;;;;6256101;23;20152;-74
2023/04/17 13:56:06;;;;;;;5.40;4.80;;;;;;;;;;6238854;23;20156;-73
2023/04/17 13:59:10;;;;;;;4.57;3.93;;;;;;;;;;6255776;23;20183;-73
2023/04/17 14:02:13;;;;;;;5.10;4.27;;;;;;;;;;6249128;22;20347;-73
2023/04/17 14:05:18;;;;;;;7.00;5.77;;;;;;;;;;6256788;23;20155;-75
2023/04/17 14:08:22;;;;;;;4.33;3.63;;;;;;;;;;6247896;23;20167;-74
2023/04/17 14:11:27;;;;;;;5.83;3.60;;;;;;;;;;6246839;22;20504;-74
2023/04/17 14:14:31;;;;;;;4.40;3.50;;;;;;;;;;6257545;23;20155;-73
2023/04/17 14:17:39;;;;;;;2.43;2.23;;;;;;;;;;6256671;23;20156;-74
2023/04/17 14:20:43;;;;;;;3.73;2.60;;;;;;;;;;6255874;22;20592;-75
2023/04/17 14:23:50;;;;;;;2.50;2.30;;;;;;;;;;6257066;23;20155;-75
2023/04/17 14:26:55;;;;;;;3.10;2.80;;;;;;;;;;6254723;23;20176;-74
2023/04/17 14:29:59;;;;;;;4.30;3.50;;;;;;;;;;6238518;23;20156;-73
2023/04/17 14:33:03;;;;;;;3.50;2.77;;;;;;;;;;6238158;23;20181;-74
2023/04/17 14:36:08;;;;;;;4.03;3.57;;;;;;;;;;6238341;23;20151;-75
2023/04/17 14:39:12;;;;;;;3.53;3.10;;;;;;;;;;6238060;23;20183;-74
2023/04/17 14:42:16;;;;;;;4.90;4.30;;;;;;;;;;6249195;22;20187;-74
2023/04/17 14:45:20;;;;;;;7.47;5.00;;;;;;;;;;6228007;23;20175;-74
2023/04/17 14:48:24;;;;;;;3.40;3.10;;;;;;;;;;6256257;23;20151;-74
2023/04/17 14:51:28;;;;;;;7.13;4.60;;;;;;;;;;6252752;22;20191;-74
2023/04/17 14:54:32;;;;;;;6.10;5.50;;;;;;;;;;6238259;23;20155;-74
2023/04/17 14:57:37;;;;;;;2.63;2.40;;;;;;;;;;6237954;23;20147;-73
2023/04/17 15:00:42;;;;;;;1.90;1.70;;;;;;;;;;6238056;22;20156;-74
2023/04/17 15:03:46;;;;;;;3.00;2.63;;;;;;;;;;6257336;23;20151;-74
2023/04/17 15:06:50;;;;;;;2.10;1.90;;;;;;;;;;6256038;23;20600;-73
2023/04/17 15:09:54;;;;;;;1.50;1.40;;;;;;;;;;6255622;23;20151;-74
2023/04/17 15:12:59;;;;;;;1.80;1.70;;;;;;;;;;6255256;23;20155;-73
2023/04/17 15:16:03;;;;;;;3.37;2.40;;;;;;;;;;6246436;23;20168;-74
2023/04/17 15:19:07;;;;;;;2.10;1.57;;;;;;;;;;6238103;23;20184;-74
2023/04/17 15:22:11;;;;;;;2.07;1.77;;;;;;;;;;6248273;22;20652;-74
2023/04/17 15:25:16;;;;;;;1.60;1.50;;;;;;;;;;6256855;23;20155;-74
2023/04/17 15:28:20;;;;;;;1.93;1.70;;;;;;;;;;6246330;23;20175;-73
2023/04/17 15:31:24;;;;;;;1.57;1.20;;;;;;;;;;6227809;22;20195;-74
2023/04/17 15:34:28;;;;;;;2.17;1.80;;;;;;;;;;6255967;23;20156;-74
2023/04/17 15:37:33;;;;;;;2.37;1.90;;;;;;;;;;6256317;23;20155;-74
2023/04/17 15:40:37;;;;;;;1.57;1.43;;;;;;;;;;6254967;22;20152;-74
2023/04/17 15:43:41;;;;;;;1.43;1.33;;;;;;;;;;6238223;23;20155;-74
2023/04/17 15:46:45;;;;;;;1.20;1.10;;;;;;;;;;6256765;23;20159;-73
2023/04/17 15:49:49;;;;;;;1.70;1.53;;;;;;;;;;6238245;23;20460;-73
2023/04/17 15:52:53;;;;;;;1.47;1.37;;;;;;;;;;6246329;22;20191;-74
2023/04/17 15:55:57;;;;;;;3.70;2.03;;;;;;;;;;6256285;23;20151;-74
2023/04/17 15:59:01;;;;;;;1.80;1.60;;;;;;;;;;6221162;23;20179;-74
2023/04/17 16:02:06;;;;;;;2.57;1.63;;;;;;;;;;6233377;23;20191;-74
2023/04/17 16:05:10;;;;;;;1.80;1.70;;;;;;;;;;6240045;23;20155;-73
2023/04/17 16:08:14;;;;;;;2.37;1.60;;;;;;;;;;6257199;23;20155;-74
2023/04/17 16:11:18;;;;;;;1.70;1.60;;;;;;;;;;6254703;22;20191;-74
2023/04/17 16:14:22;;;;;;;2.80;1.93;;;;;;;;;;6221997;23;20155;-74
2023/04/17 16:17:26;;;;;;;2.40;1.90;;;;;;;;;;6258199;23;20155;-74
2023/04/17 16:20:30;;;;;;;2.50;2.30;;;;;;;;;;6247706;23;20171;-74
2023/04/17 16:23:37;;;;;;;17.70;8.07;;;;;;;;;;6239435;23;20151;-74
2023/04/17 16:26:42;;;;;;;11.17;5.50;;;;;;;;;;6247956;23;20191;-75
2023/04/17 16:29:46;;;;;;;7.53;4.23;;;;;;;;;;6257839;23;20604;-74
2023/04/17 16:32:50;;;;;;;11.67;5.50;;;;;;;;;;6230715;23;20191;-74
2023/04/17 16:35:55;;;;;;;2.10;1.80;;;;;;;;;;6239616;23;20151;-75
2023/04/17 16:39:01;;;;;;;1.83;1.60;;;;;;;;;;6239349;23;20183;-74
2023/04/17 16:42:06;;;;;;;3.23;1.90;;;;;;;;;;6232871;23;20191;-75
2023/04/17 16:45:10;;;;;;;2.23;2.00;;;;;;;;;;6256780;23;20156;-74
2023/04/17 16:48:15;;;;;;;14.63;7.63;;;;;;;;;;6258002;23;20159;-74
2023/04/17 16:51:19;;;;;;;2.57;2.37;;;;;;;;;;6254097;22;20509;-74
2023/04/17 16:54:23;;;;;;;3.03;2.50;;;;;;;;;;6247181;23;20167;-74
2023/04/17 16:57:29;;;;;;;2.37;2.10;;;;;;;;;;6194737;23;20168;-74
2023/04/17 17:00:34;;;;;;;6.90;4.80;;;;;;;;;;6239526;22;20183;-74
2023/04/17 17:03:41;;;;;;;4.77;2.37;;;;;;;;;;6247366;23;20172;-74
2023/04/17 17:06:45;;;;;;;2.83;2.40;;;;;;;;;;6256443;23;20470;-73
2023/04/17 17:09:49;;;;;;;2.73;2.43;;;;;;;;;;6257697;23;20152;-73
2023/04/17 17:12:53;;;;;;;3.23;2.40;;;;;;;;;;6247384;22;20187;-74
2023/04/17 17:15:58;;;;;;;3.50;3.00;;;;;;;;;;6257497;23;20151;-73
2023/04/17 17:19:02;;;;;;;3.77;3.03;;;;;;;;;;6239122;23;20183;-74
2023/04/17 17:22:06;;;;;;;4.87;3.83;;;;;;;;;;6232223;23;20195;-74
2023/04/17 17:25:10;;;;;;;6.27;4.40;;;;;;;;;;6257438;23;20155;-74
2023/04/17 17:28:14;;;;;;;5.53;2.83;;;;;;;;;;6249777;23;20495;-73
2023/04/17 17:31:19;;;;;;;4.07;2.73;;;;;;;;;;6254420;22;20187;-73
2023/04/17 17:34:23;;;;;;;7.97;6.27;;;;;;;;;;6247030;23;20167;-73
2023/04/17 17:37:27;;;;;;;2.83;2.40;;;;;;;;;;6247131;23;20635;-73
2023/04/17 17:40:31;;;;;;;5.33;3.50;;;;;;;;;;6257085;23;20612;-74
2023/04/17 17:43:36;;;;;;;3.43;3.07;;;;;;;;;;6238505;23;20156;-74
2023/04/17 17:46:40;;;;;;;3.90;3.20;;;;;;;;;;6246527;23;20167;-74
2023/04/17 17:49:44;;;;;;;4.20;3.33;;;;;;;;;;6220987;23;20148;-73
2023/04/17 17:52:48;;;;;;;3.90;3.50;;;;;;;;;;6247468;22;20187;-75
2023/04/17 17:55:54;;;;;;;4.37;3.67;;;;;;;;;;6257222;23;20155;-73
2023/04/17 17:58:58;;;;;;;4.40;3.80;;;;;;;;;;6256542;23;20184;-73
2023/04/17 18:02:02;;;;;;;4.50;3.97;;;;;;;;;;6250471;22;20191;-74
2023/04/17 18:05:07;;;;;;;5.53;4.00;;;;;;;;;;6221300;23;20155;-74
2023/04/17 18:08:11;;;;;;;4.47;4.07;;;;;;;;;;6257025;23;20152;-73
2023/04/17 18:11:15;;;;;;;4.23;3.83;;;;;;;;;;6254328;22;20183;-74
2023/04/17 18:14:19;;;;;;;4.17;3.50;;;;;;;;;;6256927;23;20592;-74
2023/04/17 18:17:24;;;;;;;4.00;3.17;;;;;;;;;;6255528;23;20148;-73
2023/04/17 18:20:28;;;;;;;3.43;3.07;;;;;;;;;;6255354;23;20632;-73
2023/04/17 18:23:32;;;;;;;3.37;2.90;;;;;;;;;;6257229;23;20156;-74
2023/04/17 18:26:36;;;;;;;3.90;3.53;;;;;;;;;;6237016;23;20151;-74
2023/04/17 18:29:40;;;;;;;4.20;3.27;;;;;;;;;;6256676;23;20152;-74